Time;durP1;ratioP1;P1;durP2;ratioP2;P2;SDS_P1;SDS_P2;PMS_P1;PMS_P2;Temp;Humidity;BMP_temperature;BMP_pressure;BME280_temperature;BME280_humidity;BME280_pressure;Samples;Min_cycle;Max_cycle;Signal;HPM_P1;HPM_P2
2024/02/21 00:00:18;;;;;;;1.50;0.88;;;22.10;51.40;;;;;;5038814;28;20049;-68
2024/02/21 00:02:44;;;;;;;1.58;0.90;;;22.10;51.40;;;;;;5040584;28;20424;-68
2024/02/21 00:05:09;;;;;;;1.73;0.90;;;22.10;51.50;;;;;;5034529;28;20091;-68
2024/02/21 00:07:35;;;;;;;1.45;0.85;;;22.00;51.40;;;;;;5037181;28;20033;-68
2024/02/21 00:10:01;;;;;;;2.03;0.90;;;22.10;51.50;;;;;;5040440;28;20029;-67
2024/02/21 00:12:26;;;;;;;1.73;0.90;;;22.00;51.40;;;;;;5037258;28;20022;-68
2024/02/21 00:14:52;;;;;;;1.25;0.90;;;22.00;51.40;;;;;;5039840;28;20048;-68
2024/02/21 00:17:17;;;;;;;1.80;1.02;;;22.00;51.50;;;;;;5038482;28;20057;-68
2024/02/21 00:19:43;;;;;;;1.70;0.93;;;22.00;51.50;;;;;;5039216;28;20401;-67
2024/02/21 00:22:08;;;;;;;1.50;0.95;;;22.00;51.50;;;;;;5037675;28;20021;-67
2024/02/21 00:24:34;;;;;;;1.10;0.80;;;21.90;51.50;;;;;;5039844;28;20785;-68
2024/02/21 00:27:00;;;;;;;1.00;0.75;;;21.90;51.50;;;;;;5036494;28;20029;-66
2024/02/21 00:29:25;;;;;;;1.60;1.00;;;21.90;52.00;;;;;;5035696;28;20029;-68
2024/02/21 00:31:51;;;;;;;1.50;0.90;;;21.90;51.50;;;;;;5038693;28;20044;-68
2024/02/21 00:34:19;;;;;;;1.58;0.98;;;21.90;51.50;;;;;;5039954;28;20021;-62
2024/02/21 00:36:45;;;;;;;2.20;1.35;;;21.90;51.50;;;;;;5035401;28;20029;-65
2024/02/21 00:39:11;;;;;;;2.38;0.98;;;21.90;51.60;;;;;;5039908;28;20045;-64
2024/02/21 00:41:36;;;;;;;1.50;0.90;;;21.90;51.50;;;;;;5040643;28;20051;-65
2024/02/21 00:44:05;;;;;;;1.60;0.95;;;21.80;51.50;;;;;;5038300;28;20027;-65
2024/02/21 00:46:31;;;;;;;0.80;0.77;;;21.80;51.50;;;;;;5038630;28;20025;-65
2024/02/21 00:48:56;;;;;;;1.27;0.95;;;21.80;51.50;;;;;;5038685;28;20403;-64
2024/02/21 00:51:22;;;;;;;1.80;0.88;;;21.80;51.50;;;;;;5037107;28;20030;-64
2024/02/21 00:53:47;;;;;;;1.30;0.80;;;21.80;51.50;;;;;;5040974;28;20021;-64
2024/02/21 00:56:13;;;;;;;1.20;0.80;;;21.80;51.60;;;;;;5037242;28;20056;-65
2024/02/21 00:58:39;;;;;;;1.83;0.90;;;21.80;51.60;;;;;;5037626;28;20044;-65
2024/02/21 01:01:04;;;;;;;1.25;0.80;;;21.80;51.60;;;;;;5038908;28;20025;-64
2024/02/21 01:03:30;;;;;;;1.23;0.75;;;21.80;51.60;;;;;;5039281;28;20441;-65
2024/02/21 01:05:56;;;;;;;1.48;0.90;;;21.70;51.60;;;;;;5037374;28;20048;-63
2024/02/21 01:08:21;;;;;;;2.13;0.80;;;21.70;51.60;;;;;;5036378;28;20025;-63
2024/02/21 01:10:47;;;;;;;1.20;0.80;;;21.70;51.60;;;;;;5039501;28;20025;-63
2024/02/21 01:13:13;;;;;;;1.63;0.90;;;21.70;51.60;;;;;;5039510;28;20075;-63
2024/02/21 01:15:38;;;;;;;1.05;0.80;;;21.70;51.60;;;;;;5023317;28;20072;-64
2024/02/21 01:18:05;;;;;;;1.88;0.80;;;21.70;51.60;;;;;;5036869;28;20041;-63
2024/02/21 01:20:30;;;;;;;1.13;0.80;;;21.70;51.60;;;;;;5037268;28;20056;-63
2024/02/21 01:22:56;;;;;;;1.63;0.90;;;21.70;51.70;;;;;;5038696;28;20460;-63
2024/02/21 01:25:23;;;;;;;2.38;1.05;;;21.70;51.70;;;;;;5039117;28;20029;-65
2024/02/21 01:27:48;;;;;;;1.40;0.80;;;21.70;51.70;;;;;;5037780;28;20060;-65
2024/02/21 01:30:14;;;;;;;1.15;0.85;;;21.70;51.70;;;;;;5037843;28;20072;-65
2024/02/21 01:32:40;;;;;;;1.48;0.93;;;21.70;51.70;;;;;;5038411;28;20460;-64
2024/02/21 01:35:07;;;;;;;1.65;1.00;;;21.70;51.70;;;;;;5038705;28;20116;-65
2024/02/21 01:37:33;;;;;;;1.38;1.00;;;21.60;51.70;;;;;;5035166;28;20055;-65
2024/02/21 01:39:58;;;;;;;1.17;0.80;;;21.60;51.70;;;;;;5038929;28;20025;-64
2024/02/21 01:42:24;;;;;;;1.50;0.88;;;21.60;51.70;;;;;;5037105;28;20033;-65
2024/02/21 01:44:50;;;;;;;1.30;0.90;;;21.60;51.70;;;;;;5039860;28;20115;-63
2024/02/21 01:47:16;;;;;;;1.00;0.82;;;21.60;51.70;;;;;;5036796;28;20029;-62
2024/02/21 01:49:42;;;;;;;1.95;0.95;;;21.60;51.70;;;;;;5032873;28;20026;-62
2024/02/21 01:52:11;;;;;;;1.45;0.90;;;21.60;51.70;;;;;;5035890;28;20025;-63
2024/02/21 01:54:37;;;;;;;1.00;0.70;;;21.60;51.70;;;;;;5035269;28;20026;-62
2024/02/21 01:57:03;;;;;;;1.25;0.80;;;21.60;51.70;;;;;;5037959;28;20033;-62
2024/02/21 01:59:29;;;;;;;1.83;0.90;;;21.50;51.70;;;;;;5037590;28;20032;-62
2024/02/21 02:01:56;;;;;;;1.30;0.80;;;21.50;51.70;;;;;;5038380;28;20489;-64
2024/02/21 02:04:24;;;;;;;1.88;0.88;;;21.50;51.70;;;;;;5035197;28;20535;-62
2024/02/21 02:06:51;;;;;;;1.08;0.85;;;21.50;52.20;;;;;;5036358;28;20025;-62
2024/02/21 02:09:16;;;;;;;1.00;0.80;;;21.50;51.70;;;;;;5039657;28;20029;-64
2024/02/21 02:11:43;;;;;;;1.30;0.88;;;21.50;51.80;;;;;;5035871;28;20365;-62
2024/02/21 02:14:12;;;;;;;1.30;0.98;;;21.50;51.80;;;;;;5039898;28;20504;-63
2024/02/21 02:16:37;;;;;;;1.00;0.80;;;21.50;51.80;;;;;;5038338;28;20029;-67
2024/02/21 02:19:03;;;;;;;1.38;0.88;;;21.50;51.80;;;;;;5036746;28;20213;-67
2024/02/21 02:21:42;;;;;;;1.33;0.90;;;21.50;51.80;;;;;;5036522;28;20035;-68
2024/02/21 02:24:08;;;;;;;2.92;0.95;;;21.40;51.70;;;;;;5039329;28;20033;-67
2024/02/21 02:26:33;;;;;;;1.65;0.80;;;21.40;51.80;;;;;;5036486;28;20053;-68
2024/02/21 02:29:01;;;;;;;1.00;0.85;;;21.40;51.80;;;;;;5037979;28;20044;-67
2024/02/21 02:31:27;;;;;;;1.25;0.80;;;21.40;51.80;;;;;;5037315;28;20092;-67
2024/02/21 02:33:53;;;;;;;0.93;0.80;;;21.40;51.80;;;;;;5038215;28;20033;-68
2024/02/21 02:36:19;;;;;;;1.15;0.80;;;21.40;51.80;;;;;;5035908;28;20157;-68
2024/02/21 02:38:45;;;;;;;1.10;0.70;;;21.40;51.80;;;;;;5037878;28;20034;-68
2024/02/21 02:41:10;;;;;;;0.95;0.70;;;21.40;51.80;;;;;;5038526;28;20191;-68
2024/02/21 02:43:36;;;;;;;1.05;0.80;;;21.40;51.80;;;;;;5035918;28;20021;-68
2024/02/21 02:46:03;;;;;;;1.70;0.90;;;21.40;51.80;;;;;;5033018;28;20028;-68
2024/02/21 02:48:29;;;;;;;1.05;0.80;;;21.40;51.80;;;;;;5038081;28;20493;-68
2024/02/21 02:50:55;;;;;;;1.23;0.77;;;21.40;51.90;;;;;;5037645;28;20040;-68
2024/02/21 02:53:20;;;;;;;1.50;1.00;;;21.30;51.80;;;;;;5034334;28;20041;-68
2024/02/21 02:55:46;;;;;;;0.98;0.70;;;21.30;52.30;;;;;;5034901;28;20027;-63
2024/02/21 02:58:12;;;;;;;1.48;0.98;;;21.30;52.40;;;;;;5036021;28;20134;-64
2024/02/21 03:00:39;;;;;;;1.30;0.82;;;21.30;51.80;;;;;;5036042;28;20088;-63
2024/02/21 03:03:05;;;;;;;1.25;0.77;;;21.30;51.90;;;;;;5037373;28;20489;-63
2024/02/21 03:05:30;;;;;;;0.65;0.65;;;21.30;51.90;;;;;;5037411;28;20115;-63
2024/02/21 03:07:56;;;;;;;1.20;0.82;;;21.30;51.90;;;;;;5033315;28;20033;-64
2024/02/21 03:10:22;;;;;;;0.90;0.70;;;21.30;51.90;;;;;;5040112;28;20121;-63
2024/02/21 03:12:48;;;;;;;1.75;0.80;;;21.30;51.90;;;;;;5037946;28;20026;-63
2024/02/21 03:15:14;;;;;;;1.42;0.88;;;21.30;51.90;;;;;;5041974;28;20482;-62
2024/02/21 03:17:40;;;;;;;1.25;0.77;;;21.30;51.90;;;;;;5040247;28;20474;-63
2024/02/21 03:20:09;;;;;;;1.17;0.88;;;21.30;51.90;;;;;;5041316;28;20055;-63
2024/02/21 03:22:35;;;;;;;1.02;0.80;;;21.20;51.90;;;;;;5039043;28;20033;-64
2024/02/21 03:25:01;;;;;;;0.88;0.77;;;21.20;51.90;;;;;;5041565;28;20028;-67
2024/02/21 03:27:26;;;;;;;1.33;0.75;;;21.20;51.90;;;;;;5040893;28;20106;-68
2024/02/21 03:29:52;;;;;;;1.05;0.77;;;21.20;51.90;;;;;;5039950;28;20109;-67
2024/02/21 03:32:18;;;;;;;1.25;0.98;;;21.20;51.90;;;;;;5042325;28;20060;-67
2024/02/21 03:34:43;;;;;;;1.20;0.80;;;21.20;51.90;;;;;;5039337;28;20053;-67
2024/02/21 03:37:09;;;;;;;1.30;0.80;;;21.20;51.90;;;;;;5041286;28;20022;-68
2024/02/21 03:39:34;;;;;;;1.95;0.90;;;21.20;51.90;;;;;;5040564;28;20072;-68
2024/02/21 03:42:04;;;;;;;1.30;0.80;;;21.20;52.00;;;;;;5040192;28;20035;-67
2024/02/21 03:44:33;;;;;;;;;;;21.20;52.00;;;;;;5038492;28;20037;-65
2024/02/21 03:47:02;;;;;;;0.82;0.70;;;21.20;51.90;;;;;;5035514;28;20253;-65
2024/02/21 03:49:27;;;;;;;1.45;0.80;;;21.20;51.90;;;;;;5038570;28;20385;-65
2024/02/21 03:51:53;;;;;;;1.50;0.90;;;21.20;52.00;;;;;;5037451;28;20034;-65
2024/02/21 03:54:19;;;;;;;2.03;0.98;;;21.20;52.00;;;;;;5040125;28;20036;-65
2024/02/21 03:56:47;;;;;;;0.90;0.77;;;21.10;52.00;;;;;;5041150;28;20025;-65
2024/02/21 03:59:13;;;;;;;1.33;0.80;;;21.10;52.10;;;;;;5039587;28;20048;-65
2024/02/21 04:01:38;;;;;;;1.30;0.90;;;21.10;52.60;;;;;;5040153;28;20056;-65
2024/02/21 04:04:04;;;;;;;1.45;0.90;;;21.10;52.10;;;;;;5037687;28;20029;-65
2024/02/21 04:06:30;;;;;;;1.33;0.80;;;21.10;52.10;;;;;;5039263;28;20127;-63
2024/02/21 04:08:56;;;;;;;1.13;0.80;;;21.10;52.10;;;;;;5038420;28;20033;-63
2024/02/21 04:11:22;;;;;;;1.40;0.80;;;21.10;52.10;;;;;;5041016;28;20029;-63
2024/02/21 04:13:49;;;;;;;1.20;0.80;;;21.10;52.10;;;;;;5039655;28;20094;-62
2024/02/21 04:16:15;;;;;;;1.05;0.80;;;21.10;52.10;;;;;;5036927;28;20024;-62
2024/02/21 04:18:41;;;;;;;0.80;0.63;;;21.10;52.10;;;;;;5038984;28;20100;-62
2024/02/21 04:21:08;;;;;;;1.17;0.80;;;21.10;52.10;;;;;;5038242;28;20120;-63
2024/02/21 04:23:33;;;;;;;0.93;0.70;;;21.10;52.10;;;;;;5036716;28;20483;-62
2024/02/21 04:25:59;;;;;;;1.25;0.80;;;21.10;52.10;;;;;;5040984;28;20029;-61
2024/02/21 04:28:24;;;;;;;1.10;0.80;;;21.10;52.10;;;;;;5039518;28;20079;-62
2024/02/21 04:30:50;;;;;;;0.85;0.70;;;21.10;52.10;;;;;;5039569;28;20025;-62
2024/02/21 04:33:16;;;;;;;1.08;0.70;;;21.10;52.20;;;;;;5041324;28;20031;-63
2024/02/21 04:35:41;;;;;;;1.23;0.80;;;21.10;52.20;;;;;;5039509;28;20091;-67
2024/02/21 04:38:07;;;;;;;1.00;0.82;;;21.10;52.20;;;;;;5033795;28;20029;-67
2024/02/21 04:40:33;;;;;;;1.27;0.70;;;21.10;52.20;;;;;;5037926;28;20032;-67
2024/02/21 04:42:59;;;;;;;1.08;0.80;;;21.10;52.20;;;;;;5039245;28;20017;-67
2024/02/21 04:45:24;;;;;;;0.85;0.57;;;21.10;52.20;;;;;;5038790;28;20041;-67
2024/02/21 04:47:50;;;;;;;0.80;0.73;;;21.10;52.20;;;;;;5039456;28;20064;-66
2024/02/21 04:50:16;;;;;;;1.60;0.80;;;21.10;52.20;;;;;;5037827;28;20039;-67
2024/02/21 04:52:42;;;;;;;0.90;0.80;;;21.10;52.20;;;;;;5036473;28;20028;-66
2024/02/21 04:55:08;;;;;;;1.08;0.73;;;21.00;52.20;;;;;;5039020;28;20029;-66
2024/02/21 04:57:33;;;;;;;0.98;0.75;;;21.10;52.30;;;;;;5038413;28;20466;-67
2024/02/21 04:59:59;;;;;;;1.17;0.73;;;21.00;52.20;;;;;;5038912;28;20100;-67
2024/02/21 05:02:26;;;;;;;0.68;0.60;;;21.00;52.30;;;;;;5038914;28;20458;-67
2024/02/21 05:04:52;;;;;;;0.95;0.70;;;21.00;52.30;;;;;;5038457;28;20498;-67
2024/02/21 05:07:19;;;;;;;1.00;0.73;;;21.00;52.30;;;;;;5035075;28;20035;-66
2024/02/21 05:09:45;;;;;;;0.68;0.60;;;21.00;52.30;;;;;;5037192;28;20021;-67
2024/02/21 05:12:11;;;;;;;0.90;0.70;;;21.00;52.30;;;;;;5037794;28;20090;-67
2024/02/21 05:14:37;;;;;;;0.80;0.68;;;21.00;52.30;;;;;;5037658;28;20060;-64
2024/02/21 05:17:05;;;;;;;1.08;0.70;;;21.00;52.30;;;;;;5037232;28;20025;-63
2024/02/21 05:19:31;;;;;;;0.97;0.73;;;21.00;52.30;;;;;;5038726;28;20026;-63
2024/02/21 05:21:57;;;;;;;0.95;0.60;;;21.00;52.40;;;;;;5040764;28;20079;-63
2024/02/21 05:24:22;;;;;;;1.08;0.80;;;21.00;52.40;;;;;;5035402;28;20037;-62
2024/02/21 05:26:48;;;;;;;1.02;0.70;;;21.00;52.50;;;;;;5034701;28;20488;-61
2024/02/21 05:29:13;;;;;;;1.15;0.80;;;21.00;52.40;;;;;;5038157;28;20038;-62
2024/02/21 05:31:51;;;;;;;0.90;0.70;;;21.00;52.40;;;;;;5038105;28;20068;-62
2024/02/21 05:34:17;;;;;;;1.10;0.85;;;21.00;52.40;;;;;;5039166;28;20025;-63
2024/02/21 05:36:43;;;;;;;1.20;0.80;;;20.90;52.40;;;;;;5035022;28;20040;-62
2024/02/21 05:39:08;;;;;;;0.73;0.70;;;20.90;52.40;;;;;;5033903;28;20109;-63
2024/02/21 05:41:34;;;;;;;1.10;0.73;;;20.90;52.40;;;;;;5042459;28;20503;-63
2024/02/21 05:43:59;;;;;;;1.23;0.73;;;20.90;52.40;;;;;;5036781;28;20037;-62
2024/02/21 05:46:25;;;;;;;1.27;0.73;;;20.90;52.40;;;;;;5037646;28;20033;-62
2024/02/21 05:48:51;;;;;;;2.15;1.17;;;20.90;52.50;;;;;;5037280;28;20021;-62
2024/02/21 05:51:16;;;;;;;1.20;0.88;;;20.90;52.50;;;;;;5037910;28;20037;-63
2024/02/21 05:53:42;;;;;;;1.30;0.80;;;20.90;52.50;;;;;;5035432;28;20567;-62
2024/02/21 05:56:11;;;;;;;1.30;0.82;;;20.90;52.50;;;;;;5036109;28;20108;-62
2024/02/21 05:58:37;;;;;;;1.30;0.90;;;20.90;52.50;;;;;;5036063;28;20485;-62
2024/02/21 06:01:03;;;;;;;1.50;0.85;;;20.90;52.50;;;;;;5039054;28;20067;-61
2024/02/21 06:03:29;;;;;;;0.70;0.60;;;20.90;52.60;;;;;;5038687;28;20060;-62
2024/02/21 06:05:55;;;;;;;0.93;0.70;;;20.90;52.60;;;;;;5038638;28;20033;-65
2024/02/21 06:08:21;;;;;;;0.90;0.70;;;20.90;52.60;;;;;;5036112;28;20482;-66
2024/02/21 06:10:48;;;;;;;0.90;0.70;;;20.90;52.60;;;;;;5038115;28;20026;-66
2024/02/21 06:13:14;;;;;;;1.45;0.80;;;20.90;52.60;;;;;;5037965;28;20045;-66
2024/02/21 06:15:39;;;;;;;1.23;0.70;;;20.90;52.60;;;;;;5038064;28;20485;-65
2024/02/21 06:18:05;;;;;;;0.77;0.77;;;20.90;52.60;;;;;;5036297;28;20109;-66
2024/02/21 06:20:31;;;;;;;0.70;0.65;;;20.80;52.60;;;;;;5038827;28;20030;-66
2024/02/21 06:22:57;;;;;;;0.98;0.70;;;20.90;52.70;;;;;;5035153;28;20390;-66
2024/02/21 06:25:22;;;;;;;1.00;0.80;;;20.90;52.60;;;;;;5032330;28;20083;-64
2024/02/21 06:27:48;;;;;;;0.63;0.60;;;20.90;52.60;;;;;;5037850;28;20473;-62
2024/02/21 06:30:14;;;;;;;1.00;0.70;;;20.90;52.70;;;;;;5036506;28;20025;-63
2024/02/21 06:32:39;;;;;;;1.10;0.80;;;20.80;52.60;;;;;;5036056;28;20080;-61
2024/02/21 06:35:05;;;;;;;1.05;0.70;;;20.80;52.70;;;;;;5037775;28;20607;-62
2024/02/21 06:37:32;;;;;;;1.88;0.70;;;20.90;52.70;;;;;;5038219;28;20108;-62
2024/02/21 06:39:58;;;;;;;1.27;0.90;;;20.80;52.70;;;;;;5036060;28;20031;-62
2024/02/21 06:42:27;;;;;;;2.10;0.80;;;20.80;52.70;;;;;;5037905;28;20489;-63
2024/02/21 06:44:52;;;;;;;0.70;0.70;;;20.80;52.70;;;;;;5041298;28;20026;-62
2024/02/21 06:47:18;;;;;;;1.70;1.00;;;20.80;52.70;;;;;;5039694;28;20092;-61
2024/02/21 06:49:48;;;;;;;0.65;0.60;;;20.80;52.70;;;;;;5040572;28;20042;-62
2024/02/21 06:52:17;;;;;;;1.35;0.90;;;20.80;52.70;;;;;;5039649;28;20109;-61
2024/02/21 06:54:42;;;;;;;0.98;0.70;;;20.80;52.70;;;;;;5035428;28;20593;-66
2024/02/21 06:57:08;;;;;;;1.20;0.80;;;20.80;52.70;;;;;;5041156;28;20028;-66
2024/02/21 06:59:34;;;;;;;1.13;0.60;;;20.80;52.70;;;;;;5039239;28;20043;-66
2024/02/21 07:02:00;;;;;;;1.48;0.80;;;20.70;52.80;;;;;;5041452;28;20040;-66
2024/02/21 07:04:27;;;;;;;1.23;0.70;;;20.80;52.90;;;;;;5039035;28;20030;-66
2024/02/21 07:06:52;;;;;;;1.52;0.88;;;20.80;53.10;;;;;;5039346;28;20554;-66
2024/02/21 07:09:18;;;;;;;1.20;0.70;;;20.80;53.40;;;;;;5038982;28;20104;-66
2024/02/21 07:11:44;;;;;;;1.13;0.77;;;20.80;53.50;;;;;;5040911;28;20630;-66
2024/02/21 07:14:09;;;;;;;1.33;0.80;;;20.80;53.50;;;;;;5039555;28;20337;-66
2024/02/21 07:16:35;;;;;;;1.40;0.70;;;20.80;53.40;;;;;;5039617;28;20080;-63
2024/02/21 07:19:00;;;;;;;0.90;0.75;;;20.80;53.30;;;;;;5041382;28;20063;-62
2024/02/21 07:21:26;;;;;;;1.13;0.77;;;20.90;53.40;;;;;;5039322;28;20029;-64
2024/02/21 07:23:52;;;;;;;2.03;0.70;;;20.90;53.30;;;;;;5036858;28;20057;-63
2024/02/21 07:26:17;;;;;;;0.88;0.70;;;20.90;53.30;;;;;;5039916;28;20159;-62
2024/02/21 07:28:43;;;;;;;1.20;0.80;;;20.90;53.30;;;;;;5040911;28;20087;-63
2024/02/21 07:31:09;;;;;;;1.88;0.82;;;20.90;53.30;;;;;;5041553;28;20025;-62
2024/02/21 07:33:35;;;;;;;1.42;0.93;;;20.90;53.20;;;;;;5038871;28;20057;-63
2024/02/21 07:36:01;;;;;;;0.77;0.60;;;20.90;53.30;;;;;;5038272;28;20056;-62
2024/02/21 07:38:26;;;;;;;1.00;0.70;;;20.90;53.20;;;;;;5038651;28;20029;-62
2024/02/21 07:40:52;;;;;;;0.80;0.60;;;21.00;53.20;;;;;;5040629;28;20103;-62
2024/02/21 07:43:18;;;;;;;0.95;0.75;;;21.00;53.20;;;;;;5054414;28;20068;-62
2024/02/21 07:45:43;;;;;;;1.13;0.70;;;21.00;53.10;;;;;;5036707;28;20040;-62
2024/02/21 07:48:09;;;;;;;1.20;0.77;;;21.00;53.10;;;;;;5039203;28;20132;-63
2024/02/21 07:50:34;;;;;;;0.60;0.60;;;21.00;53.10;;;;;;5040340;28;20029;-63
2024/02/21 07:53:00;;;;;;;1.48;0.80;;;21.10;53.10;;;;;;5039041;28;20107;-62
2024/02/21 07:55:26;;;;;;;0.85;0.70;;;21.10;53.10;;;;;;5035579;28;20025;-62
2024/02/21 07:57:51;;;;;;;0.95;0.70;;;21.10;53.10;;;;;;5039480;28;20032;-63
2024/02/21 08:00:19;;;;;;;1.55;0.73;;;21.10;53.20;;;;;;5040618;28;20029;-62
2024/02/21 08:02:49;;;;;;;0.80;0.63;;;21.10;53.10;;;;;;5040259;28;20031;-63
2024/02/21 08:05:14;;;;;;;0.70;0.70;;;21.10;53.00;;;;;;5055422;28;20051;-62
2024/02/21 08:07:40;;;;;;;1.65;1.00;;;21.20;53.00;;;;;;5039999;28;20022;-63
2024/02/21 08:10:09;;;;;;;1.10;0.60;;;21.20;53.10;;;;;;5043692;28;20044;-63
2024/02/21 08:12:35;;;;;;;1.42;0.90;;;21.20;53.30;;;;;;5046851;28;20060;-64
2024/02/21 08:15:03;;;;;;;1.52;0.73;;;21.20;53.50;;;;;;5043817;28;20098;-63
2024/02/21 08:17:28;;;;;;;1.02;0.70;;;21.30;53.80;;;;;;5044578;28;20033;-62
2024/02/21 08:19:54;;;;;;;1.10;0.80;;;21.30;53.90;;;;;;5040186;28;20504;-62
2024/02/21 08:22:20;;;;;;;3.47;0.90;;;21.30;54.00;;;;;;5042617;28;20366;-63
2024/02/21 08:24:45;;;;;;;1.27;0.90;;;21.40;54.10;;;;;;5023643;28;20363;-62
2024/02/21 08:27:11;;;;;;;2.78;0.80;;;21.40;54.20;;;;;;5038359;28;20036;-62
2024/02/21 08:29:37;;;;;;;1.05;0.63;;;21.40;54.30;;;;;;5037935;28;20021;-62
2024/02/21 08:32:03;;;;;;;1.10;0.75;;;21.50;54.50;;;;;;5040533;28;20127;-63
2024/02/21 08:34:30;;;;;;;0.93;0.70;;;21.50;54.50;;;;;;5040196;28;20036;-63
2024/02/21 08:36:55;;;;;;;1.00;0.73;;;21.50;54.60;;;;;;5039887;28;20503;-62
2024/02/21 08:39:21;;;;;;;1.58;0.70;;;21.60;54.70;;;;;;5033407;28;20021;-62
2024/02/21 08:41:47;;;;;;;1.00;0.63;;;21.60;54.80;;;;;;5039608;28;20499;-61
2024/02/21 08:44:12;;;;;;;0.60;0.60;;;21.60;54.80;;;;;;5038882;28;20033;-63
2024/02/21 08:46:40;;;;;;;0.90;0.70;;;21.70;54.90;;;;;;5037793;28;20056;-63
2024/02/21 08:49:06;;;;;;;2.15;0.77;;;21.70;54.90;;;;;;5040634;28;20029;-63
2024/02/21 08:51:31;;;;;;;0.60;0.60;;;21.70;54.90;;;;;;5039094;28;20033;-63
2024/02/21 08:53:58;;;;;;;0.90;0.70;;;21.80;55.00;;;;;;5036274;28;20033;-63
2024/02/21 08:56:24;;;;;;;0.70;0.70;;;21.80;55.50;;;;;;5039384;28;20040;-63
2024/02/21 08:58:49;;;;;;;0.93;0.70;;;21.90;55.10;;;;;;5038849;28;20430;-63
2024/02/21 09:01:15;;;;;;;0.60;0.60;;;21.90;55.10;;;;;;5036658;28;20036;-63
2024/02/21 09:03:41;;;;;;;0.77;0.68;;;21.90;55.10;;;;;;5038941;28;20079;-64
2024/02/21 09:06:07;;;;;;;0.80;0.60;;;21.90;55.10;;;;;;5038798;28;20029;-63
2024/02/21 09:08:33;;;;;;;1.05;0.50;;;22.00;55.20;;;;;;5037024;28;20372;-64
2024/02/21 09:11:03;;;;;;;0.85;0.60;;;22.00;55.20;;;;;;5036003;28;20099;-63
2024/02/21 09:13:29;;;;;;;0.57;0.57;;;22.10;55.30;;;;;;5038442;28;20043;-63
2024/02/21 09:15:55;;;;;;;0.95;0.60;;;22.10;55.30;;;;;;5038250;28;20430;-67
2024/02/21 09:18:21;;;;;;;1.67;0.80;;;22.20;55.40;;;;;;5040086;28;20021;-66
2024/02/21 09:20:47;;;;;;;1.15;0.82;;;22.20;55.40;;;;;;5037723;28;20025;-67
2024/02/21 09:23:13;;;;;;;0.73;0.55;;;22.20;55.40;;;;;;5040389;28;20394;-67
2024/02/21 09:25:44;;;;;;;0.90;0.73;;;22.20;55.40;;;;;;5040690;28;20025;-67
2024/02/21 09:28:10;;;;;;;1.13;0.63;;;22.30;55.40;;;;;;5036602;28;20683;-67
2024/02/21 09:30:37;;;;;;;1.00;0.80;;;22.30;55.50;;;;;;5036943;28;20220;-68
2024/02/21 09:33:04;;;;;;;1.25;0.70;;;22.30;55.50;;;;;;5039715;28;20031;-67
2024/02/21 09:35:30;;;;;;;1.10;0.70;;;22.40;55.50;;;;;;5035944;28;20032;-67
2024/02/21 09:37:56;;;;;;;0.70;0.70;;;22.40;56.10;;;;;;5038653;28;20108;-67
2024/02/21 09:40:22;;;;;;;1.15;0.80;;;22.40;55.30;;;;;;5036383;28;20017;-67
2024/02/21 09:42:48;;;;;;;0.80;0.65;;;22.40;54.40;;;;;;5041355;28;20048;-67
2024/02/21 09:45:22;;;;;;;1.00;0.70;;;22.40;53.10;;;;;;5042413;28;20100;-67
2024/02/21 09:47:59;;;;;;;1.48;0.85;;;22.30;52.70;;;;;;5037989;28;20477;-67
2024/02/21 09:50:26;;;;;;;2.22;0.73;;;22.30;52.60;;;;;;5038901;28;20033;-67
2024/02/21 09:52:54;;;;;;;1.88;0.70;;;22.30;52.60;;;;;;5040539;28;20026;-67
2024/02/21 09:55:21;;;;;;;0.60;0.60;;;22.30;52.50;;;;;;5046673;28;20033;-63
2024/02/21 09:57:47;;;;;;;2.55;0.77;;;22.30;52.50;;;;;;5035167;28;20021;-62
2024/02/21 10:00:21;;;;;;;1.23;0.80;;;22.30;52.50;;;;;;5038094;28;20583;-62
2024/02/21 10:02:50;;;;;;;1.45;0.90;;;22.30;52.40;;;;;;5039555;28;20025;-62
2024/02/21 10:05:16;;;;;;;0.93;0.70;;;22.30;52.30;;;;;;5041385;28;20032;-62
2024/02/21 10:07:41;;;;;;;1.25;0.70;;;22.30;52.30;;;;;;5035571;28;20056;-64
2024/02/21 10:10:08;;;;;;;0.93;0.70;;;22.30;52.30;;;;;;5018824;28;20219;-65
2024/02/21 10:12:33;;;;;;;1.30;0.82;;;22.30;52.30;;;;;;5037278;28;20957;-62
2024/02/21 10:15:03;;;;;;;0.82;0.70;;;22.30;52.30;;;;;;5038450;28;20103;-63
2024/02/21 10:17:29;;;;;;;1.65;1.00;;;22.30;52.30;;;;;;5041191;28;20533;-63
2024/02/21 10:19:55;;;;;;;1.17;0.70;;;22.30;52.70;;;;;;5043774;28;20042;-62
2024/02/21 10:22:21;;;;;;;1.17;0.70;;;22.30;52.20;;;;;;5042411;28;20029;-63
2024/02/21 10:24:46;;;;;;;1.42;0.88;;;22.30;52.10;;;;;;5037745;28;20036;-63
2024/02/21 10:27:12;;;;;;;1.10;0.80;;;22.30;52.20;;;;;;5046313;28;20024;-65
2024/02/21 10:29:39;;;;;;;1.38;0.70;;;22.30;52.70;;;;;;5043061;28;20033;-65
2024/02/21 10:32:09;;;;;;;0.70;0.70;;;22.30;52.20;;;;;;5040638;28;20513;-66
2024/02/21 10:34:35;;;;;;;0.77;0.60;;;22.30;52.20;;;;;;5044818;28;20029;-65
2024/02/21 10:37:10;;;;;;;1.10;0.70;;;22.30;52.20;;;;;;5040803;28;20770;-65
2024/02/21 10:39:41;;;;;;;1.55;0.90;;;22.30;52.20;;;;;;5043128;28;20021;-65
2024/02/21 10:42:10;;;;;;;1.33;0.70;;;22.40;52.20;;;;;;5039813;28;20126;-65
2024/02/21 10:44:39;;;;;;;1.50;0.90;;;22.40;52.20;;;;;;5041570;28;20108;-65
2024/02/21 10:47:08;;;;;;;1.08;0.73;;;22.40;52.20;;;;;;5044066;28;20381;-66
2024/02/21 10:49:47;;;;;;;1.35;0.80;;;22.40;52.20;;;;;;5043588;28;20033;-66
2024/02/21 10:52:46;;;;;;;1.13;0.70;;;22.40;52.20;;;;;;5060011;28;20063;-66
2024/02/21 10:55:21;;;;;;;2.60;0.70;;;22.40;52.10;;;;;;5039259;28;20023;-65
2024/02/21 10:57:47;;;;;;;1.40;0.70;;;22.40;52.20;;;;;;5041452;28;20477;-66
2024/02/21 11:00:17;;;;;;;1.30;0.60;;;22.40;52.20;;;;;;5042419;28;20100;-65
2024/02/21 11:02:44;;;;;;;1.17;0.90;;;22.40;52.20;;;;;;5042389;28;20038;-65
2024/02/21 11:05:09;;;;;;;0.95;0.70;;;22.40;52.10;;;;;;5040980;28;20484;-67
2024/02/21 11:07:39;;;;;;;0.73;0.60;;;22.40;52.50;;;;;;5040693;28;20029;-65
2024/02/21 11:10:07;;;;;;;1.08;0.75;;;22.50;52.50;;;;;;5038248;28;20875;-65
2024/02/21 11:12:33;;;;;;;1.90;0.80;;;22.50;52.20;;;;;;5044171;28;20033;-66
2024/02/21 11:15:09;;;;;;;1.05;0.70;;;22.50;52.00;;;;;;5041947;28;20029;-66
2024/02/21 11:17:34;;;;;;;1.77;0.80;;;22.50;52.00;;;;;;5039765;28;20067;-66
2024/02/21 11:20:12;;;;;;;2.20;0.80;;;22.60;52.10;;;;;;5041147;28;20496;-66
2024/02/21 11:22:42;;;;;;;1.08;0.70;;;22.60;52.10;;;;;;5042257;28;20029;-66
2024/02/21 11:25:11;;;;;;;1.27;0.70;;;22.60;52.10;;;;;;5038248;28;20477;-66
2024/02/21 11:27:38;;;;;;;1.05;0.70;;;22.60;52.30;;;;;;5036541;28;20021;-66
2024/02/21 11:30:05;;;;;;;0.82;0.60;;;22.60;52.10;;;;;;5038422;28;20025;-66
2024/02/21 11:32:31;;;;;;;0.95;0.77;;;22.60;52.20;;;;;;5040652;28;20119;-66
2024/02/21 11:35:01;;;;;;;0.88;0.70;;;22.60;52.20;;;;;;5040220;28;20162;-66
2024/02/21 11:37:28;;;;;;;0.82;0.60;;;22.60;52.20;;;;;;5040739;28;20060;-67
2024/02/21 11:39:57;;;;;;;1.40;0.75;;;22.60;52.40;;;;;;5042077;28;20497;-68
2024/02/21 11:42:24;;;;;;;0.63;0.50;;;22.60;52.20;;;;;;5038143;28;20029;-68
2024/02/21 11:44:50;;;;;;;0.85;0.65;;;22.60;52.10;;;;;;5038643;28;20069;-68
2024/02/21 11:47:17;;;;;;;2.38;0.70;;;22.60;52.10;;;;;;5043642;28;20029;-68
2024/02/21 11:49:49;;;;;;;0.93;0.60;;;22.60;52.10;;;;;;5051109;28;20041;-67
2024/02/21 11:52:18;;;;;;;0.73;0.60;;;22.60;52.10;;;;;;5051652;28;20615;-68
2024/02/21 11:54:44;;;;;;;0.77;0.60;;;22.60;52.10;;;;;;5048351;28;20021;-69
2024/02/21 11:57:11;;;;;;;0.77;0.50;;;22.60;52.10;;;;;;5044429;28;20027;-66
2024/02/21 11:59:36;;;;;;;0.95;0.63;;;22.60;52.10;;;;;;5048567;28;20021;-66
2024/02/21 12:02:03;;;;;;;0.80;0.60;;;22.60;52.10;;;;;;5042957;28;20079;-66
2024/02/21 12:04:30;;;;;;;1.10;0.65;;;22.60;52.20;;;;;;5044705;28;20033;-66
2024/02/21 12:06:57;;;;;;;1.30;0.65;;;22.70;52.30;;;;;;5046150;28;20033;-66
2024/02/21 12:09:24;;;;;;;1.02;0.70;;;22.70;52.30;;;;;;5044531;28;20045;-66
2024/02/21 12:12:00;;;;;;;0.90;0.70;;;22.60;52.30;;;;;;5049890;28;20045;-65
2024/02/21 12:14:30;;;;;;;0.80;0.68;;;22.70;52.40;;;;;;5046878;28;20108;-66
2024/02/21 12:16:56;;;;;;;;;;;22.70;52.50;;;;;;5044584;28;20055;-63
2024/02/21 12:19:22;;;;;;;1.27;0.70;;;22.70;52.50;;;;;;5042152;28;19909;-64
2024/02/21 12:21:49;;;;;;;1.15;0.68;;;22.70;52.50;;;;;;5038994;28;20473;-63
2024/02/21 12:24:22;;;;;;;1.02;0.60;;;22.70;52.50;;;;;;5037148;28;20037;-64
2024/02/21 12:26:49;;;;;;;0.80;0.60;;;22.70;52.50;;;;;;5037677;28;20474;-63
2024/02/21 12:29:14;;;;;;;1.23;0.75;;;22.70;52.50;;;;;;5039710;28;20033;-62
2024/02/21 12:31:40;;;;;;;0.57;0.55;;;22.70;52.60;;;;;;5039025;28;20040;-63
2024/02/21 12:34:06;;;;;;;0.70;0.50;;;22.70;52.60;;;;;;5037022;28;20021;-62
2024/02/21 12:36:32;;;;;;;0.82;0.70;;;22.70;52.60;;;;;;5038964;28;20030;-63
2024/02/21 12:38:59;;;;;;;0.88;0.70;;;22.70;52.50;;;;;;5037813;28;20504;-63
2024/02/21 12:41:26;;;;;;;1.90;0.60;;;22.70;52.60;;;;;;5034954;28;20017;-64
2024/02/21 12:43:52;;;;;;;1.73;0.70;;;22.70;52.60;;;;;;5040643;28;20025;-62